Terminal Aerodrome Forecast
Issued by NWS St Louis, MO

Home | Current Version | Previous Version | Text Only | Print | Product List | Glossary On
Versions: 1 2 3 4 5 6 7 8 9 10 11 12 13 14 15 16 17 18 19 20 21 22 23 24 25 26 27 28 29 30 31 32 33
000
FTUS43 KLSX 270921 AAA
TAFSTL
TAF AMD
KSTL 270921Z 2709/2812 10011KT 6SM BR OVC004
     FM271100 23012G20KT 5SM -RA VCTS OVC004CB
     FM271300 VRB05KT 6SM BR OVC007
     FM271500 16013G20KT P6SM BKN015
     FM271900 19014G20KT 4SM TSRA OVC040CB
     FM280000 20005KT P6SM SCT110=

USA.gov is the U.S. government's official web portal to all federal, state and local government web resources and services.